createdAt,value
2019-02-07T00:02:38.697Z,-3.66
2019-02-07T00:07:40.007Z,-3.57
2019-02-07T00:12:41.500Z,-3.63
2019-02-07T00:17:42.853Z,-3.62
2019-02-07T00:22:44.162Z,-3.76
2019-02-07T00:27:45.471Z,-3.93
2019-02-07T00:32:46.794Z,-3.95
2019-02-07T00:37:48.342Z,-4.00
2019-02-07T00:42:49.939Z,-4.24
2019-02-07T00:47:51.337Z,-4.17
2019-02-07T00:52:52.652Z,-4.19
2019-02-07T00:57:54.759Z,-4.33
2019-02-07T01:02:56.717Z,-4.40
2019-02-07T01:07:58.184Z,-4.36
2019-02-07T01:12:59.836Z,-4.36
2019-02-07T01:18:01.135Z,-4.39
2019-02-07T01:23:02.490Z,-4.50
2019-02-07T01:28:03.805Z,-4.35
2019-02-07T01:33:05.090Z,-4.18
2019-02-07T01:38:07.954Z,-4.28
2019-02-07T01:43:09.377Z,-4.32
2019-02-07T01:48:10.678Z,-4.21
2019-02-07T01:53:11.959Z,-4.02
2019-02-07T01:58:13.234Z,-4.07
2019-02-07T02:03:14.983Z,-4.12
2019-02-07T02:08:16.686Z,-4.20
2019-02-07T02:13:18.026Z,-4.36
2019-02-07T02:18:19.791Z,-4.27
2019-02-07T02:23:21.191Z,-4.41
2019-02-07T02:28:22.607Z,-4.55
2019-02-07T02:33:24.024Z,-4.61
2019-02-07T02:38:25.255Z,-4.66
2019-02-07T02:43:26.435Z,-4.70
2019-02-07T02:48:27.684Z,-4.68
2019-02-07T02:53:28.890Z,-4.59
2019-02-07T02:58:30.322Z,-4.62
2019-02-07T03:03:33.486Z,-4.75
2019-02-07T03:08:42.774Z,-4.73
2019-02-07T03:13:51.777Z,-4.65
2019-02-07T03:19:10.165Z,-4.54
2019-02-07T03:24:13.319Z,-4.49
2019-02-07T03:29:22.495Z,-4.44
2019-02-07T03:34:28.869Z,-4.45
2019-02-07T03:39:32.047Z,-4.45
2019-02-07T03:44:52.026Z,-4.39
2019-02-07T03:50:01.516Z,-4.52
2019-02-07T03:55:12.114Z,-4.55
2019-02-07T04:00:18.328Z,-4.51
2019-02-07T04:05:21.629Z,-4.49
2019-02-07T04:10:24.897Z,-4.62
2019-02-07T04:15:28.501Z,-4.55
2019-02-07T04:20:48.070Z,-4.63
2019-02-07T04:26:03.870Z,-4.71
2019-02-07T04:31:12.829Z,-4.67
2019-02-07T04:36:16.112Z,-4.59
2019-02-07T04:41:36.025Z,-4.65
2019-02-07T04:46:48.469Z,-4.59
2019-02-07T04:52:08.974Z,-4.36
2019-02-07T04:57:14.986Z,-4.27
2019-02-07T05:02:33.470Z,-4.18
2019-02-07T05:07:54.040Z,-4.15
2019-02-07T05:13:15.564Z,-4.04
2019-02-07T05:18:36.651Z,-4.02
2019-02-07T05:23:46.036Z,-3.99
2019-02-07T05:29:07.519Z,-3.89
2019-02-07T05:34:13.817Z,-3.89
2019-02-07T05:39:17.310Z,-3.74
2019-02-07T05:44:29.485Z,-3.61
2019-02-07T05:49:41.342Z,-3.69
2019-02-07T05:55:00.996Z,-3.71
2019-02-07T06:00:23.489Z,-3.83
2019-02-07T06:05:43.441Z,-3.87
2019-02-07T06:11:03.519Z,-3.87
2019-02-07T06:16:07.147Z,-3.86
2019-02-07T06:21:22.780Z,-3.87
2019-02-07T06:26:35.508Z,-3.97
2019-02-07T06:31:55.561Z,-4.00
2019-02-07T06:36:58.788Z,-3.98
2019-02-07T06:42:08.432Z,-3.86
2019-02-07T06:47:13.451Z,-3.27
2019-02-07T06:52:33.721Z,-3.03
2019-02-07T06:57:52.447Z,-3.02
2019-02-07T07:02:55.715Z,-2.98
2019-02-07T07:08:04.797Z,-2.92
2019-02-07T07:13:14.238Z,-2.74
2019-02-07T07:18:34.134Z,-2.70
2019-02-07T07:23:37.493Z,-2.57
2019-02-07T07:28:43.764Z,-2.42
2019-02-07T07:33:59.220Z,-2.31
2019-02-07T07:39:14.622Z,-2.15
2019-02-07T07:44:23.846Z,-2.05
2019-02-07T07:49:38.888Z,-1.84
2019-02-07T07:54:59.655Z,-1.85
2019-02-07T08:00:05.372Z,-1.73
2019-02-07T08:05:14.716Z,-1.54
2019-02-07T08:10:34.896Z,-1.25
2019-02-07T08:15:55.121Z,-1.04
2019-02-07T08:20:58.414Z,-1.37
2019-02-07T08:26:04.588Z,-1.01
2019-02-07T08:31:07.812Z,-0.57
2019-02-07T08:36:18.177Z,-0.09
2019-02-07T08:41:21.592Z,-0.18
2019-02-07T08:46:41.255Z,-0.07
2019-02-07T08:51:53.617Z,-0.22
2019-02-07T08:56:56.894Z,-0.22
2019-02-07T09:02:15.081Z,0.37
2019-02-07T09:07:18.515Z,0.40
2019-02-07T09:12:38.614Z,0.47
2019-02-07T09:17:44.755Z,0.65
2019-02-07T09:22:55.979Z,0.47
2019-02-07T09:27:59.198Z,1.20
2019-02-07T09:33:18.877Z,1.90
2019-02-07T09:38:40.553Z,2.48
2019-02-07T09:43:46.733Z,2.61
2019-02-07T09:48:58.640Z,2.34
2019-02-07T09:54:04.784Z,1.58
2019-02-07T09:59:08.043Z,2.02
2019-02-07T10:04:15.351Z,2.39
2019-02-07T10:09:18.522Z,1.93
2019-02-07T10:14:21.614Z,2.18
2019-02-07T10:19:42.704Z,2.38
2019-02-07T10:24:58.252Z,2.40
2019-02-07T10:30:02.432Z,2.25
2019-02-07T10:35:09.697Z,1.78
2019-02-07T10:40:16.671Z,1.33
2019-02-07T10:45:22.794Z,1.63
2019-02-07T10:50:38.274Z,1.80
2019-02-07T10:56:00.349Z,1.95
2019-02-07T11:01:06.457Z,1.87
2019-02-07T11:06:18.654Z,1.75
2019-02-07T11:11:30.951Z,1.23
2019-02-07T11:16:42.833Z,0.65
2019-02-07T11:22:02.795Z,0.65
2019-02-07T11:27:18.379Z,1.20
2019-02-07T11:32:38.451Z,1.33
2019-02-07T11:37:59.904Z,0.81
2019-02-07T11:43:09.657Z,0.78
2019-02-07T11:48:13.052Z,1.19
2019-02-07T11:53:32.697Z,1.34
2019-02-07T11:58:38.863Z,1.66
2019-02-07T12:03:45.403Z,1.28
2019-02-07T12:08:51.533Z,1.41
2019-02-07T12:14:09.900Z,1.46
2019-02-07T12:19:25.206Z,1.85
2019-02-07T12:24:34.722Z,1.89
2019-02-07T12:29:44.684Z,2.03
2019-02-07T12:34:50.434Z,2.14
2019-02-07T12:39:53.590Z,2.08
2019-02-07T12:45:12.244Z,2.13
2019-02-07T12:50:15.479Z,2.25
2019-02-07T12:55:21.486Z,2.28
2019-02-07T13:00:41.755Z,2.34
2019-02-07T13:06:01.736Z,2.41
2019-02-07T13:11:15.048Z,2.48
2019-02-07T13:16:36.368Z,2.72
2019-02-07T13:21:56.511Z,3.10
2019-02-07T13:27:02.428Z,3.42
2019-02-07T13:32:10.390Z,3.71
2019-02-07T13:37:17.775Z,3.77
2019-02-07T13:42:32.958Z,3.70
2019-02-07T13:47:42.051Z,3.31
2019-02-07T13:52:51.457Z,2.93
2019-02-07T13:58:11.906Z,2.84
2019-02-07T14:03:33.420Z,3.23
2019-02-07T14:08:40.482Z,3.29
2019-02-07T14:13:59.866Z,3.80
2019-02-07T14:19:03.339Z,4.31
2019-02-07T14:24:09.513Z,4.10
2019-02-07T14:29:29.657Z,4.30
2019-02-07T14:34:41.928Z,4.79
2019-02-07T14:39:47.981Z,4.77
2019-02-07T14:44:53.844Z,4.39
2019-02-07T14:49:55.329Z,4.42
2019-02-07T14:54:57.560Z,4.85
2019-02-07T14:59:58.858Z,5.07
2019-02-07T15:05:00.532Z,5.03
2019-02-07T15:10:01.950Z,4.88
2019-02-07T15:15:09.078Z,4.79
2019-02-07T15:20:11.416Z,4.65
2019-02-07T15:25:12.985Z,4.61
2019-02-07T15:30:16.482Z,4.64
2019-02-07T15:35:24.244Z,4.80
2019-02-07T15:40:25.862Z,4.49
2019-02-07T15:45:27.440Z,4.41
2019-02-07T15:50:37.657Z,4.44
2019-02-07T15:55:34.187Z,4.35
2019-02-07T16:00:43.358Z,4.48
2019-02-07T16:05:45.261Z,4.08
2019-02-07T16:10:46.619Z,4.18
2019-02-07T16:15:48.305Z,4.00
2019-02-07T16:20:49.634Z,4.12
2019-02-07T16:25:51.301Z,4.26
2019-02-07T16:30:54.517Z,4.30
2019-02-07T16:35:55.784Z,4.17
2019-02-07T16:40:57.213Z,4.00
2019-02-07T16:45:58.885Z,3.95
2019-02-07T16:51:00.643Z,3.94
2019-02-07T16:56:02.192Z,3.95
2019-02-07T17:01:04.387Z,3.96
2019-02-07T17:06:05.775Z,3.79
2019-02-07T17:11:07.056Z,3.64
2019-02-07T17:16:08.452Z,3.44
2019-02-07T17:21:12.468Z,3.27
2019-02-07T17:26:13.259Z,3.16
2019-02-07T17:31:14.521Z,3.19
2019-02-07T17:36:17.007Z,3.15
2019-02-07T17:41:18.428Z,3.19
2019-02-07T17:46:19.708Z,3.08
2019-02-07T17:51:23.300Z,3.08
2019-02-07T17:56:24.494Z,2.80
2019-02-07T18:01:26.026Z,2.75
2019-02-07T18:06:27.721Z,2.70
2019-02-07T18:11:29.139Z,2.79
2019-02-07T18:16:31.019Z,2.89
2019-02-07T18:21:34.199Z,2.90
2019-02-07T18:26:35.688Z,2.83
2019-02-07T18:31:37.370Z,2.79
2019-02-07T18:36:39.054Z,2.66
2019-02-07T18:41:40.313Z,2.57
2019-02-07T18:46:41.901Z,2.62
2019-02-07T18:51:45.721Z,2.64
2019-02-07T18:56:46.833Z,2.63
2019-02-07T19:01:48.623Z,2.31
2019-02-07T19:06:50.851Z,1.89
2019-02-07T19:11:52.255Z,1.71
2019-02-07T19:16:53.684Z,1.69
2019-02-07T19:21:57.148Z,1.69
2019-02-07T19:26:58.196Z,1.71
2019-02-07T19:31:59.739Z,1.79
2019-02-07T19:37:01.286Z,1.86
2019-02-07T19:42:04.383Z,1.89
2019-02-07T19:47:05.943Z,2.05
2019-02-07T19:52:08.591Z,1.95
2019-02-07T19:57:10.158Z,1.95
2019-02-07T20:02:11.574Z,1.91
2019-02-07T20:07:13.424Z,1.84
2019-02-07T20:12:16.175Z,1.79
2019-02-07T20:17:17.556Z,1.79
2019-02-07T20:22:20.467Z,1.75
2019-02-07T20:27:31.692Z,1.60
2019-02-07T20:32:37.466Z,1.43
2019-02-07T20:37:38.783Z,1.15
2019-02-07T20:42:45.410Z,0.85
2019-02-07T20:47:48.598Z,0.69
2019-02-07T20:52:50.847Z,0.62
2019-02-07T20:57:53.249Z,0.49
2019-02-07T21:02:56.147Z,0.33
2019-02-07T21:07:57.714Z,0.32
2019-02-07T21:12:59.212Z,0.24
2019-02-07T21:18:00.876Z,0.17
2019-02-07T21:23:03.368Z,0.15
2019-02-07T21:28:06.185Z,0.06
2019-02-07T21:33:07.566Z,-0.01
2019-02-07T21:38:08.994Z,-0.08
2019-02-07T21:43:10.422Z,0.01
2019-02-07T21:48:12.224Z,-0.11
2019-02-07T21:53:14.414Z,-0.07
2019-02-07T21:58:15.917Z,-0.18
2019-02-07T22:03:18.396Z,-0.25
2019-02-07T22:08:19.807Z,0.14
2019-02-07T22:13:21.244Z,0.27
2019-02-07T22:18:22.929Z,0.58
2019-02-07T22:23:24.210Z,0.70
2019-02-07T22:28:25.747Z,0.55
2019-02-07T22:33:27.137Z,0.28
2019-02-07T22:38:28.464Z,0.03
2019-02-07T22:43:29.757Z,-0.07
2019-02-07T22:48:31.151Z,0.05
2019-02-07T22:53:32.468Z,-0.09
2019-02-07T22:58:33.961Z,-0.17
2019-02-07T23:03:37.900Z,-0.13
2019-02-07T23:08:39.525Z,-0.09
2019-02-07T23:13:40.835Z,-0.05
2019-02-07T23:18:42.582Z,-0.12
2019-02-07T23:23:44.558Z,-0.24
2019-02-07T23:28:46.136Z,-0.24
2019-02-07T23:33:47.619Z,-0.09
2019-02-07T23:38:48.905Z,0.07
2019-02-07T23:43:55.285Z,0.18
2019-02-07T23:48:56.968Z,0.21
2019-02-07T23:53:58.267Z,0.37
2019-02-07T23:58:59.595Z,0.53
